Paynes Creek, California
Current Conditions -  °F | °C
As of 4:54 PM on Saturday 22 Nov 2014 (Local Time) from KRBL Reporting Station
Clear Clear  
Wind Chill: 59°   Ceiling: Unl
Heat Index: 59°   Visibility: 10mi
Dew Point: 40°   Wind: 12mph
Humidity: 49%   Direction: 290°WNW
Pressure: 30.14"   Gusts: NA
Location:  40.34°N, 121.91°W
Report Text: KRBL 230054Z AUTO 29010KT 10SM CLR 15/04 A3014 RMK AO2 SLP204 T01500044
Loading
Personal Weather Stations






























Interactive Weather Map New forecast layout! Learn more

10-Day Weather Forecast

Advertisements
Track Severe Weather on mobile